sensor_id;sensor_type;location;lat;lon;timestamp;temperature;humidity
28524;DHT22;15734;50.904;6.922;2023-07-22T00:00:17;12.20;99.90
28524;DHT22;15734;50.904;6.922;2023-07-22T00:02:43;12.10;99.90
28524;DHT22;15734;50.904;6.922;2023-07-22T00:05:09;12.10;99.90
28524;DHT22;15734;50.904;6.922;2023-07-22T00:07:38;12.10;99.90
28524;DHT22;15734;50.904;6.922;2023-07-22T00:10:06;12.00;99.90
28524;DHT22;15734;50.904;6.922;2023-07-22T00:12:33;12.00;99.90
28524;DHT22;15734;50.904;6.922;2023-07-22T00:14:58;12.00;99.90
28524;DHT22;15734;50.904;6.922;2023-07-22T00:17:24;12.00;99.90
28524;DHT22;15734;50.904;6.922;2023-07-22T00:19:50;12.00;99.90
28524;DHT22;15734;50.904;6.922;2023-07-22T00:22:15;12.00;99.90
28524;DHT22;15734;50.904;6.922;2023-07-22T00:24:41;11.90;99.90
28524;DHT22;15734;50.904;6.922;2023-07-22T00:27:07;11.90;99.90
28524;DHT22;15734;50.904;6.922;2023-07-22T00:29:34;11.90;99.90
28524;DHT22;15734;50.904;6.922;2023-07-22T00:32:00;11.80;99.90
28524;DHT22;15734;50.904;6.922;2023-07-22T00:34:25;11.80;99.90
28524;DHT22;15734;50.904;6.922;2023-07-22T00:36:51;11.70;99.90
28524;DHT22;15734;50.904;6.922;2023-07-22T00:39:17;11.70;99.90
28524;DHT22;15734;50.904;6.922;2023-07-22T00:41:43;11.60;99.90
28524;DHT22;15734;50.904;6.922;2023-07-22T00:44:10;11.70;99.90
28524;DHT22;15734;50.904;6.922;2023-07-22T00:46:37;11.60;99.90
28524;DHT22;15734;50.904;6.922;2023-07-22T00:49:05;11.70;99.90
28524;DHT22;15734;50.904;6.922;2023-07-22T00:51:32;11.70;99.90
28524;DHT22;15734;50.904;6.922;2023-07-22T00:53:57;11.60;99.90
28524;DHT22;15734;50.904;6.922;2023-07-22T00:56:23;11.60;99.90
28524;DHT22;15734;50.904;6.922;2023-07-22T00:58:48;11.60;99.90
28524;DHT22;15734;50.904;6.922;2023-07-22T01:01:14;11.60;99.90
28524;DHT22;15734;50.904;6.922;2023-07-22T01:03:40;11.50;99.90
28524;DHT22;15734;50.904;6.922;2023-07-22T01:06:06;11.60;99.90
28524;DHT22;15734;50.904;6.922;2023-07-22T01:08:32;11.40;99.90
28524;DHT22;15734;50.904;6.922;2023-07-22T01:10:58;11.40;99.90
28524;DHT22;15734;50.904;6.922;2023-07-22T01:13:24;11.40;99.90
28524;DHT22;15734;50.904;6.922;2023-07-22T01:15:50;11.40;99.90
28524;DHT22;15734;50.904;6.922;2023-07-22T01:18:16;11.40;99.90
28524;DHT22;15734;50.904;6.922;2023-07-22T01:20:41;11.30;99.90
28524;DHT22;15734;50.904;6.922;2023-07-22T01:23:07;11.40;99.90
28524;DHT22;15734;50.904;6.922;2023-07-22T01:25:32;11.40;99.90
28524;DHT22;15734;50.904;6.922;2023-07-22T01:27:58;11.40;99.90
28524;DHT22;15734;50.904;6.922;2023-07-22T01:30:23;11.40;99.90
28524;DHT22;15734;50.904;6.922;2023-07-22T01:32:50;11.40;99.90
28524;DHT22;15734;50.904;6.922;2023-07-22T01:35:16;11.40;99.90
28524;DHT22;15734;50.904;6.922;2023-07-22T01:37:42;11.30;99.90
28524;DHT22;15734;50.904;6.922;2023-07-22T01:40:08;11.40;99.90
28524;DHT22;15734;50.904;6.922;2023-07-22T01:42:43;11.30;99.90
28524;DHT22;15734;50.904;6.922;2023-07-22T01:45:09;11.30;99.90
28524;DHT22;15734;50.904;6.922;2023-07-22T01:47:36;11.30;99.90
28524;DHT22;15734;50.904;6.922;2023-07-22T01:50:05;11.30;99.90
28524;DHT22;15734;50.904;6.922;2023-07-22T01:52:35;11.40;99.90
28524;DHT22;15734;50.904;6.922;2023-07-22T01:55:01;11.40;99.90
28524;DHT22;15734;50.904;6.922;2023-07-22T01:57:31;11.40;99.90
28524;DHT22;15734;50.904;6.922;2023-07-22T01:59:56;11.40;99.90
28524;DHT22;15734;50.904;6.922;2023-07-22T02:02:22;11.40;99.90
28524;DHT22;15734;50.904;6.922;2023-07-22T02:04:47;11.50;99.90
28524;DHT22;15734;50.904;6.922;2023-07-22T02:07:13;11.60;99.90
28524;DHT22;15734;50.904;6.922;2023-07-22T02:09:39;11.70;99.90
28524;DHT22;15734;50.904;6.922;2023-07-22T02:12:04;11.70;99.90
28524;DHT22;15734;50.904;6.922;2023-07-22T02:14:31;11.80;99.90
28524;DHT22;15734;50.904;6.922;2023-07-22T02:16:57;11.80;99.90
28524;DHT22;15734;50.904;6.922;2023-07-22T02:19:22;11.90;99.90
28524;DHT22;15734;50.904;6.922;2023-07-22T02:21:48;11.80;99.90
28524;DHT22;15734;50.904;6.922;2023-07-22T02:24:14;11.80;99.90
28524;DHT22;15734;50.904;6.922;2023-07-22T02:26:40;11.80;99.90
28524;DHT22;15734;50.904;6.922;2023-07-22T02:29:05;11.80;99.90
28524;DHT22;15734;50.904;6.922;2023-07-22T02:31:31;11.80;99.90
28524;DHT22;15734;50.904;6.922;2023-07-22T02:33:57;11.80;99.90
28524;DHT22;15734;50.904;6.922;2023-07-22T02:36:22;11.80;99.90
28524;DHT22;15734;50.904;6.922;2023-07-22T02:38:48;11.80;99.90
28524;DHT22;15734;50.904;6.922;2023-07-22T02:41:13;11.70;99.90
28524;DHT22;15734;50.904;6.922;2023-07-22T02:43:39;11.70;99.90
28524;DHT22;15734;50.904;6.922;2023-07-22T02:46:05;11.70;99.90
28524;DHT22;15734;50.904;6.922;2023-07-22T02:48:33;11.70;99.90
28524;DHT22;15734;50.904;6.922;2023-07-22T02:51:06;11.70;99.90
28524;DHT22;15734;50.904;6.922;2023-07-22T02:53:33;11.70;99.90
28524;DHT22;15734;50.904;6.922;2023-07-22T02:55:59;11.70;99.90
28524;DHT22;15734;50.904;6.922;2023-07-22T02:58:25;11.70;99.90
28524;DHT22;15734;50.904;6.922;2023-07-22T03:00:50;11.80;99.90
28524;DHT22;15734;50.904;6.922;2023-07-22T03:03:16;11.90;99.90
28524;DHT22;15734;50.904;6.922;2023-07-22T03:05:41;11.90;99.90
28524;DHT22;15734;50.904;6.922;2023-07-22T03:08:07;12.00;99.90
28524;DHT22;15734;50.904;6.922;2023-07-22T03:10:33;12.00;99.90
28524;DHT22;15734;50.904;6.922;2023-07-22T03:12:58;12.00;99.90
28524;DHT22;15734;50.904;6.922;2023-07-22T03:15:25;12.10;99.90
28524;DHT22;15734;50.904;6.922;2023-07-22T03:17:55;12.10;99.90
28524;DHT22;15734;50.904;6.922;2023-07-22T03:20:27;12.10;99.90
28524;DHT22;15734;50.904;6.922;2023-07-22T03:22:53;12.10;99.90
28524;DHT22;15734;50.904;6.922;2023-07-22T03:25:20;12.20;99.90
28524;DHT22;15734;50.904;6.922;2023-07-22T03:27:45;12.20;99.90
28524;DHT22;15734;50.904;6.922;2023-07-22T03:30:13;12.20;99.90
28524;DHT22;15734;50.904;6.922;2023-07-22T03:32:46;12.20;99.90
28524;DHT22;15734;50.904;6.922;2023-07-22T03:35:18;12.10;99.90
28524;DHT22;15734;50.904;6.922;2023-07-22T03:37:43;12.10;99.90
28524;DHT22;15734;50.904;6.922;2023-07-22T03:40:09;12.10;99.90
28524;DHT22;15734;50.904;6.922;2023-07-22T03:42:51;12.10;99.90
28524;DHT22;15734;50.904;6.922;2023-07-22T03:45:18;12.00;99.90
28524;DHT22;15734;50.904;6.922;2023-07-22T03:47:46;12.00;99.90
28524;DHT22;15734;50.904;6.922;2023-07-22T03:50:11;12.00;99.90
28524;DHT22;15734;50.904;6.922;2023-07-22T03:52:37;12.00;99.90
28524;DHT22;15734;50.904;6.922;2023-07-22T03:55:04;11.90;99.90
28524;DHT22;15734;50.904;6.922;2023-07-22T03:57:31;11.90;99.90
28524;DHT22;15734;50.904;6.922;2023-07-22T03:59:56;11.90;99.90
28524;DHT22;15734;50.904;6.922;2023-07-22T04:02:23;11.90;99.90
28524;DHT22;15734;50.904;6.922;2023-07-22T04:04:49;11.90;99.90
28524;DHT22;15734;50.904;6.922;2023-07-22T04:07:15;11.90;99.90
28524;DHT22;15734;50.904;6.922;2023-07-22T04:09:40;11.90;99.90
28524;DHT22;15734;50.904;6.922;2023-07-22T04:12:07;11.90;99.90
28524;DHT22;15734;50.904;6.922;2023-07-22T04:14:32;11.90;99.90
28524;DHT22;15734;50.904;6.922;2023-07-22T04:16:58;11.90;99.90
28524;DHT22;15734;50.904;6.922;2023-07-22T04:19:23;11.90;99.90
28524;DHT22;15734;50.904;6.922;2023-07-22T04:21:49;11.90;99.90
28524;DHT22;15734;50.904;6.922;2023-07-22T04:24:15;11.90;99.90
28524;DHT22;15734;50.904;6.922;2023-07-22T04:26:42;12.00;99.90
28524;DHT22;15734;50.904;6.922;2023-07-22T04:29:08;12.00;99.90
28524;DHT22;15734;50.904;6.922;2023-07-22T04:31:34;11.90;99.90
28524;DHT22;15734;50.904;6.922;2023-07-22T04:33:59;12.00;99.90
28524;DHT22;15734;50.904;6.922;2023-07-22T04:36:25;12.00;99.90
28524;DHT22;15734;50.904;6.922;2023-07-22T04:38:50;12.00;99.90
28524;DHT22;15734;50.904;6.922;2023-07-22T04:41:16;12.10;99.90
28524;DHT22;15734;50.904;6.922;2023-07-22T04:43:41;12.10;99.90
28524;DHT22;15734;50.904;6.922;2023-07-22T04:46:07;12.20;99.90
28524;DHT22;15734;50.904;6.922;2023-07-22T04:48:34;12.30;99.90
28524;DHT22;15734;50.904;6.922;2023-07-22T04:50:59;12.40;99.90
28524;DHT22;15734;50.904;6.922;2023-07-22T04:53:25;12.40;99.90
28524;DHT22;15734;50.904;6.922;2023-07-22T04:55:50;12.50;99.90
28524;DHT22;15734;50.904;6.922;2023-07-22T04:58:16;12.60;99.90
28524;DHT22;15734;50.904;6.922;2023-07-22T05:00:42;12.60;99.90
28524;DHT22;15734;50.904;6.922;2023-07-22T05:03:08;12.70;99.90
28524;DHT22;15734;50.904;6.922;2023-07-22T05:05:34;12.80;99.90
28524;DHT22;15734;50.904;6.922;2023-07-22T05:07:59;12.90;99.90
28524;DHT22;15734;50.904;6.922;2023-07-22T05:10:25;12.90;99.90
28524;DHT22;15734;50.904;6.922;2023-07-22T05:12:50;13.00;99.90
28524;DHT22;15734;50.904;6.922;2023-07-22T05:15:16;13.00;99.90
28524;DHT22;15734;50.904;6.922;2023-07-22T05:17:41;13.10;99.90
28524;DHT22;15734;50.904;6.922;2023-07-22T05:20:07;13.20;99.90
28524;DHT22;15734;50.904;6.922;2023-07-22T05:22:37;13.20;99.90
28524;DHT22;15734;50.904;6.922;2023-07-22T05:25:07;13.20;99.90
28524;DHT22;15734;50.904;6.922;2023-07-22T05:27:33;13.30;99.90
28524;DHT22;15734;50.904;6.922;2023-07-22T05:29:59;13.40;99.90
28524;DHT22;15734;50.904;6.922;2023-07-22T05:32:25;13.40;99.90
28524;DHT22;15734;50.904;6.922;2023-07-22T05:34:51;13.40;99.90
28524;DHT22;15734;50.904;6.922;2023-07-22T05:37:17;13.40;99.90
28524;DHT22;15734;50.904;6.922;2023-07-22T05:39:42;13.50;99.90
28524;DHT22;15734;50.904;6.922;2023-07-22T05:42:08;13.60;99.90
28524;DHT22;15734;50.904;6.922;2023-07-22T05:44:34;13.70;99.90
28524;DHT22;15734;50.904;6.922;2023-07-22T05:46:59;13.80;99.90
28524;DHT22;15734;50.904;6.922;2023-07-22T05:49:25;13.90;99.90
28524;DHT22;15734;50.904;6.922;2023-07-22T05:51:50;14.00;99.90
28524;DHT22;15734;50.904;6.922;2023-07-22T05:54:16;14.10;99.90
28524;DHT22;15734;50.904;6.922;2023-07-22T05:56:42;14.20;99.90
28524;DHT22;15734;50.904;6.922;2023-07-22T05:59:07;14.30;99.90
28524;DHT22;15734;50.904;6.922;2023-07-22T06:01:33;14.30;99.90
28524;DHT22;15734;50.904;6.922;2023-07-22T06:03:59;14.40;99.90
28524;DHT22;15734;50.904;6.922;2023-07-22T06:06:24;14.50;99.90
28524;DHT22;15734;50.904;6.922;2023-07-22T06:08:50;14.50;99.90
28524;DHT22;15734;50.904;6.922;2023-07-22T06:11:15;14.60;99.90
28524;DHT22;15734;50.904;6.922;2023-07-22T06:13:41;14.60;99.90
28524;DHT22;15734;50.904;6.922;2023-07-22T06:16:06;14.70;99.90
28524;DHT22;15734;50.904;6.922;2023-07-22T06:18:32;14.70;99.90
28524;DHT22;15734;50.904;6.922;2023-07-22T06:20:57;14.80;99.90
28524;DHT22;15734;50.904;6.922;2023-07-22T06:23:23;14.80;99.90
28524;DHT22;15734;50.904;6.922;2023-07-22T06:25:48;14.90;99.90
28524;DHT22;15734;50.904;6.922;2023-07-22T06:28:14;15.00;99.90
28524;DHT22;15734;50.904;6.922;2023-07-22T06:30:39;15.10;99.90
28524;DHT22;15734;50.904;6.922;2023-07-22T06:33:05;15.20;99.90
28524;DHT22;15734;50.904;6.922;2023-07-22T06:35:31;15.40;99.90
28524;DHT22;15734;50.904;6.922;2023-07-22T06:37:56;15.70;99.90
28524;DHT22;15734;50.904;6.922;2023-07-22T06:40:22;15.90;99.90
28524;DHT22;15734;50.904;6.922;2023-07-22T06:42:47;16.10;99.90
28524;DHT22;15734;50.904;6.922;2023-07-22T06:45:13;16.30;99.90
28524;DHT22;15734;50.904;6.922;2023-07-22T06:47:38;16.30;99.90
28524;DHT22;15734;50.904;6.922;2023-07-22T06:50:04;16.50;99.90
28524;DHT22;15734;50.904;6.922;2023-07-22T06:52:31;16.60;99.90
28524;DHT22;15734;50.904;6.922;2023-07-22T06:54:56;16.70;99.90
28524;DHT22;15734;50.904;6.922;2023-07-22T06:57:22;16.70;99.90
28524;DHT22;15734;50.904;6.922;2023-07-22T06:59:48;16.80;99.90
28524;DHT22;15734;50.904;6.922;2023-07-22T07:02:16;16.90;99.90
28524;DHT22;15734;50.904;6.922;2023-07-22T07:04:41;17.00;99.90
28524;DHT22;15734;50.904;6.922;2023-07-22T07:07:07;17.10;99.90
28524;DHT22;15734;50.904;6.922;2023-07-22T07:09:32;17.20;99.90
28524;DHT22;15734;50.904;6.922;2023-07-22T07:11:59;17.30;99.90
28524;DHT22;15734;50.904;6.922;2023-07-22T07:14:25;17.50;99.90
28524;DHT22;15734;50.904;6.922;2023-07-22T07:16:51;17.50;99.90
28524;DHT22;15734;50.904;6.922;2023-07-22T07:19:16;17.60;99.90
28524;DHT22;15734;50.904;6.922;2023-07-22T07:21:42;17.60;99.90
28524;DHT22;15734;50.904;6.922;2023-07-22T07:24:07;17.80;99.90
28524;DHT22;15734;50.904;6.922;2023-07-22T07:26:33;17.80;99.90
28524;DHT22;15734;50.904;6.922;2023-07-22T07:28:58;17.90;99.90
28524;DHT22;15734;50.904;6.922;2023-07-22T07:31:24;18.00;99.90
28524;DHT22;15734;50.904;6.922;2023-07-22T07:33:50;18.00;99.90
28524;DHT22;15734;50.904;6.922;2023-07-22T07:36:16;18.10;99.90
28524;DHT22;15734;50.904;6.922;2023-07-22T07:38:42;18.10;99.90
28524;DHT22;15734;50.904;6.922;2023-07-22T07:41:08;18.10;99.90
28524;DHT22;15734;50.904;6.922;2023-07-22T07:43:34;18.10;99.90
28524;DHT22;15734;50.904;6.922;2023-07-22T07:46:21;18.20;99.90
28524;DHT22;15734;50.904;6.922;2023-07-22T07:48:49;18.40;99.90
28524;DHT22;15734;50.904;6.922;2023-07-22T07:51:15;18.50;99.90
28524;DHT22;15734;50.904;6.922;2023-07-22T07:53:41;18.60;99.90
28524;DHT22;15734;50.904;6.922;2023-07-22T07:56:09;18.70;99.90
28524;DHT22;15734;50.904;6.922;2023-07-22T07:58:35;18.60;99.90
28524;DHT22;15734;50.904;6.922;2023-07-22T08:01:00;18.80;99.90
28524;DHT22;15734;50.904;6.922;2023-07-22T08:03:26;18.70;99.90
28524;DHT22;15734;50.904;6.922;2023-07-22T08:05:51;18.80;99.90
28524;DHT22;15734;50.904;6.922;2023-07-22T08:08:17;18.90;99.90
28524;DHT22;15734;50.904;6.922;2023-07-22T08:10:43;18.90;99.90
28524;DHT22;15734;50.904;6.922;2023-07-22T08:13:10;19.00;99.90
28524;DHT22;15734;50.904;6.922;2023-07-22T08:15:35;19.10;99.90
28524;DHT22;15734;50.904;6.922;2023-07-22T08:18:01;19.10;99.90
28524;DHT22;15734;50.904;6.922;2023-07-22T08:20:26;19.10;99.90
28524;DHT22;15734;50.904;6.922;2023-07-22T08:22:52;19.20;99.90
28524;DHT22;15734;50.904;6.922;2023-07-22T08:25:18;19.30;99.90
28524;DHT22;15734;50.904;6.922;2023-07-22T08:27:43;19.30;99.90
28524;DHT22;15734;50.904;6.922;2023-07-22T08:30:09;19.30;99.90
28524;DHT22;15734;50.904;6.922;2023-07-22T08:32:35;19.40;99.90
28524;DHT22;15734;50.904;6.922;2023-07-22T08:35:00;19.30;99.90
28524;DHT22;15734;50.904;6.922;2023-07-22T08:37:26;19.30;99.90
28524;DHT22;15734;50.904;6.922;2023-07-22T08:39:51;19.30;99.90
28524;DHT22;15734;50.904;6.922;2023-07-22T08:42:18;19.40;99.90
28524;DHT22;15734;50.904;6.922;2023-07-22T08:44:48;19.40;99.90
28524;DHT22;15734;50.904;6.922;2023-07-22T08:47:16;19.40;99.90
28524;DHT22;15734;50.904;6.922;2023-07-22T08:49:46;19.50;99.90
28524;DHT22;15734;50.904;6.922;2023-07-22T08:52:14;19.60;99.90
28524;DHT22;15734;50.904;6.922;2023-07-22T08:54:41;19.70;99.90
28524;DHT22;15734;50.904;6.922;2023-07-22T08:57:08;19.70;99.90
28524;DHT22;15734;50.904;6.922;2023-07-22T08:59:35;19.90;99.90
28524;DHT22;15734;50.904;6.922;2023-07-22T09:02:01;19.90;99.90
28524;DHT22;15734;50.904;6.922;2023-07-22T09:04:27;19.80;99.90
28524;DHT22;15734;50.904;6.922;2023-07-22T09:06:53;19.80;99.90
28524;DHT22;15734;50.904;6.922;2023-07-22T09:09:20;19.90;99.90
28524;DHT22;15734;50.904;6.922;2023-07-22T09:11:47;20.00;99.90
28524;DHT22;15734;50.904;6.922;2023-07-22T09:14:13;20.20;99.90
28524;DHT22;15734;50.904;6.922;2023-07-22T09:16:39;20.20;99.90
28524;DHT22;15734;50.904;6.922;2023-07-22T09:19:04;20.40;99.90
28524;DHT22;15734;50.904;6.922;2023-07-22T09:21:31;20.60;99.90
28524;DHT22;15734;50.904;6.922;2023-07-22T09:23:56;20.70;99.90
28524;DHT22;15734;50.904;6.922;2023-07-22T09:26:22;20.60;99.90
28524;DHT22;15734;50.904;6.922;2023-07-22T09:28:57;20.80;99.90
28524;DHT22;15734;50.904;6.922;2023-07-22T09:31:25;20.90;99.90
28524;DHT22;15734;50.904;6.922;2023-07-22T09:33:51;20.80;99.90
28524;DHT22;15734;50.904;6.922;2023-07-22T09:36:19;20.90;99.90
28524;DHT22;15734;50.904;6.922;2023-07-22T09:38:45;20.90;99.90
28524;DHT22;15734;50.904;6.922;2023-07-22T09:41:11;20.90;99.90
28524;DHT22;15734;50.904;6.922;2023-07-22T09:43:38;21.10;99.90
28524;DHT22;15734;50.904;6.922;2023-07-22T09:46:08;21.10;99.90
28524;DHT22;15734;50.904;6.922;2023-07-22T09:48:43;21.10;99.90
28524;DHT22;15734;50.904;6.922;2023-07-22T09:51:14;20.90;99.90
28524;DHT22;15734;50.904;6.922;2023-07-22T09:53:47;20.90;99.90
28524;DHT22;15734;50.904;6.922;2023-07-22T09:56:24;20.90;99.90
28524;DHT22;15734;50.904;6.922;2023-07-22T09:58:50;21.10;99.90
28524;DHT22;15734;50.904;6.922;2023-07-22T10:01:19;21.30;99.90
28524;DHT22;15734;50.904;6.922;2023-07-22T10:03:45;21.60;99.90
28524;DHT22;15734;50.904;6.922;2023-07-22T10:06:14;21.90;99.90
28524;DHT22;15734;50.904;6.922;2023-07-22T10:08:43;22.00;96.50
28524;DHT22;15734;50.904;6.922;2023-07-22T10:11:11;22.20;95.60
28524;DHT22;15734;50.904;6.922;2023-07-22T10:13:38;22.20;94.80
28524;DHT22;15734;50.904;6.922;2023-07-22T10:16:05;22.20;93.60
28524;DHT22;15734;50.904;6.922;2023-07-22T10:18:32;22.50;94.50
28524;DHT22;15734;50.904;6.922;2023-07-22T10:20:58;22.80;92.50
28524;DHT22;15734;50.904;6.922;2023-07-22T10:23:25;22.80;91.20
28524;DHT22;15734;50.904;6.922;2023-07-22T10:25:53;22.70;91.50
28524;DHT22;15734;50.904;6.922;2023-07-22T10:28:20;22.90;90.40
28524;DHT22;15734;50.904;6.922;2023-07-22T10:30:46;23.00;88.90
28524;DHT22;15734;50.904;6.922;2023-07-22T10:33:12;23.00;89.00
28524;DHT22;15734;50.904;6.922;2023-07-22T10:35:42;23.10;88.80
28524;DHT22;15734;50.904;6.922;2023-07-22T10:38:15;23.00;87.90
28524;DHT22;15734;50.904;6.922;2023-07-22T10:40:54;22.70;88.40
28524;DHT22;15734;50.904;6.922;2023-07-22T10:43:29;22.60;89.40
28524;DHT22;15734;50.904;6.922;2023-07-22T10:45:58;22.70;90.00
28524;DHT22;15734;50.904;6.922;2023-07-22T10:48:28;23.00;88.80
28524;DHT22;15734;50.904;6.922;2023-07-22T10:53:47;23.50;88.20
28524;DHT22;15734;50.904;6.922;2023-07-22T10:56:21;23.60;86.10
28524;DHT22;15734;50.904;6.922;2023-07-22T11:01:34;22.90;85.30
28524;DHT22;15734;50.904;6.922;2023-07-22T11:12:03;22.70;83.40
28524;DHT22;15734;50.904;6.922;2023-07-22T11:14:39;22.80;82.20
28524;DHT22;15734;50.904;6.922;2023-07-22T11:17:06;22.90;82.80
28524;DHT22;15734;50.904;6.922;2023-07-22T11:19:33;23.30;83.10
28524;DHT22;15734;50.904;6.922;2023-07-22T11:21:59;23.50;81.60
28524;DHT22;15734;50.904;6.922;2023-07-22T11:24:25;23.70;81.50
28524;DHT22;15734;50.904;6.922;2023-07-22T11:26:52;24.10;81.60
28524;DHT22;15734;50.904;6.922;2023-07-22T11:29:18;24.10;79.00
28524;DHT22;15734;50.904;6.922;2023-07-22T11:31:46;23.90;79.40
28524;DHT22;15734;50.904;6.922;2023-07-22T11:34:13;23.70;79.80
28524;DHT22;15734;50.904;6.922;2023-07-22T11:36:39;23.20;81.00
28524;DHT22;15734;50.904;6.922;2023-07-22T11:41:32;23.60;79.50
28524;DHT22;15734;50.904;6.922;2023-07-22T11:43:59;23.70;78.90
28524;DHT22;15734;50.904;6.922;2023-07-22T11:46:26;23.90;78.90
28524;DHT22;15734;50.904;6.922;2023-07-22T11:48:52;23.90;78.90
28524;DHT22;15734;50.904;6.922;2023-07-22T11:51:23;23.60;78.90
28524;DHT22;15734;50.904;6.922;2023-07-22T11:53:53;23.80;79.30
28524;DHT22;15734;50.904;6.922;2023-07-22T11:56:24;23.70;79.20
28524;DHT22;15734;50.904;6.922;2023-07-22T11:58:56;23.60;77.50
28524;DHT22;15734;50.904;6.922;2023-07-22T12:01:22;23.60;78.80
28524;DHT22;15734;50.904;6.922;2023-07-22T12:03:48;24.10;78.80
28524;DHT22;15734;50.904;6.922;2023-07-22T12:06:15;24.30;77.50
28524;DHT22;15734;50.904;6.922;2023-07-22T12:08:48;24.50;81.20
28524;DHT22;15734;50.904;6.922;2023-07-22T12:11:22;24.90;75.00
28524;DHT22;15734;50.904;6.922;2023-07-22T12:14:03;25.10;71.80
28524;DHT22;15734;50.904;6.922;2023-07-22T12:16:29;25.50;70.00
28524;DHT22;15734;50.904;6.922;2023-07-22T12:18:55;25.20;73.00
28524;DHT22;15734;50.904;6.922;2023-07-22T12:21:21;25.20;69.30
28524;DHT22;15734;50.904;6.922;2023-07-22T12:23:47;25.10;69.20
28524;DHT22;15734;50.904;6.922;2023-07-22T12:26:13;25.20;67.80
28524;DHT22;15734;50.904;6.922;2023-07-22T12:28:38;25.30;67.90
28524;DHT22;15734;50.904;6.922;2023-07-22T12:31:04;25.60;66.20
28524;DHT22;15734;50.904;6.922;2023-07-22T12:33:29;25.60;69.40
28524;DHT22;15734;50.904;6.922;2023-07-22T12:35:57;25.80;67.90
28524;DHT22;15734;50.904;6.922;2023-07-22T12:38:23;25.90;64.20
28524;DHT22;15734;50.904;6.922;2023-07-22T12:40:48;25.80;64.10
28524;DHT22;15734;50.904;6.922;2023-07-22T12:43:14;25.90;66.00
28524;DHT22;15734;50.904;6.922;2023-07-22T12:45:39;26.00;61.60
28524;DHT22;15734;50.904;6.922;2023-07-22T12:48:05;26.10;63.50
28524;DHT22;15734;50.904;6.922;2023-07-22T12:50:31;26.20;62.50
28524;DHT22;15734;50.904;6.922;2023-07-22T12:52:58;26.50;61.80
28524;DHT22;15734;50.904;6.922;2023-07-22T12:55:23;26.60;60.80
28524;DHT22;15734;50.904;6.922;2023-07-22T12:57:49;26.40;60.60
28524;DHT22;15734;50.904;6.922;2023-07-22T13:00:14;26.30;61.60
28524;DHT22;15734;50.904;6.922;2023-07-22T13:15:38;26.20;61.30
28524;DHT22;15734;50.904;6.922;2023-07-22T13:18:04;26.60;61.30
28524;DHT22;15734;50.904;6.922;2023-07-22T13:20:29;26.70;60.40
28524;DHT22;15734;50.904;6.922;2023-07-22T13:22:55;26.90;60.10
28524;DHT22;15734;50.904;6.922;2023-07-22T13:25:21;26.40;61.00
28524;DHT22;15734;50.904;6.922;2023-07-22T13:27:46;26.50;61.50
28524;DHT22;15734;50.904;6.922;2023-07-22T20:07:18;27.10;59.50
28524;DHT22;15734;50.904;6.922;2023-07-22T20:09:43;21.30;99.10
28524;DHT22;15734;50.904;6.922;2023-07-22T20:12:09;21.00;99.90
28524;DHT22;15734;50.904;6.922;2023-07-22T20:14:34;20.90;99.90
28524;DHT22;15734;50.904;6.922;2023-07-22T20:17:00;20.70;99.90
28524;DHT22;15734;50.904;6.922;2023-07-22T20:19:25;20.60;99.90
28524;DHT22;15734;50.904;6.922;2023-07-22T20:21:51;20.60;99.90
28524;DHT22;15734;50.904;6.922;2023-07-22T20:24:17;20.50;99.90
28524;DHT22;15734;50.904;6.922;2023-07-22T20:26:43;20.40;99.90
28524;DHT22;15734;50.904;6.922;2023-07-22T20:29:08;20.40;99.90
28524;DHT22;15734;50.904;6.922;2023-07-22T20:31:34;20.30;99.90
28524;DHT22;15734;50.904;6.922;2023-07-22T20:33:59;20.20;99.90
28524;DHT22;15734;50.904;6.922;2023-07-22T20:36:27;20.10;99.90
28524;DHT22;15734;50.904;6.922;2023-07-22T20:38:53;20.00;99.90
28524;DHT22;15734;50.904;6.922;2023-07-22T20:41:18;19.90;99.90
28524;DHT22;15734;50.904;6.922;2023-07-22T20:43:44;19.90;99.90
28524;DHT22;15734;50.904;6.922;2023-07-22T20:46:09;19.80;99.90
28524;DHT22;15734;50.904;6.922;2023-07-22T20:48:35;19.80;99.90
28524;DHT22;15734;50.904;6.922;2023-07-22T20:51:01;19.80;99.90
28524;DHT22;15734;50.904;6.922;2023-07-22T20:53:26;19.70;99.90
28524;DHT22;15734;50.904;6.922;2023-07-22T20:56:01;19.60;99.90
28524;DHT22;15734;50.904;6.922;2023-07-22T20:58:27;19.60;99.90
28524;DHT22;15734;50.904;6.922;2023-07-22T21:00:54;19.50;99.90
28524;DHT22;15734;50.904;6.922;2023-07-22T21:03:21;19.50;99.90
28524;DHT22;15734;50.904;6.922;2023-07-22T21:05:53;19.40;99.90
28524;DHT22;15734;50.904;6.922;2023-07-22T21:08:19;19.30;99.90
28524;DHT22;15734;50.904;6.922;2023-07-22T21:10:45;19.30;99.90
28524;DHT22;15734;50.904;6.922;2023-07-22T21:13:11;19.30;99.90
28524;DHT22;15734;50.904;6.922;2023-07-22T21:15:36;19.30;99.90
28524;DHT22;15734;50.904;6.922;2023-07-22T21:18:02;19.20;99.90
28524;DHT22;15734;50.904;6.922;2023-07-22T21:20:30;19.20;99.90
28524;DHT22;15734;50.904;6.922;2023-07-22T21:22:55;19.10;99.90
28524;DHT22;15734;50.904;6.922;2023-07-22T21:25:21;19.10;99.90
28524;DHT22;15734;50.904;6.922;2023-07-22T21:27:46;19.10;99.90
28524;DHT22;15734;50.904;6.922;2023-07-22T21:30:12;19.00;99.90
28524;DHT22;15734;50.904;6.922;2023-07-22T21:32:37;19.10;99.90
28524;DHT22;15734;50.904;6.922;2023-07-22T21:35:03;19.10;99.90
28524;DHT22;15734;50.904;6.922;2023-07-22T21:37:29;19.00;99.90
28524;DHT22;15734;50.904;6.922;2023-07-22T21:39:54;19.00;99.90
28524;DHT22;15734;50.904;6.922;2023-07-22T21:42:20;18.90;99.90
28524;DHT22;15734;50.904;6.922;2023-07-22T21:44:45;18.80;99.90
28524;DHT22;15734;50.904;6.922;2023-07-22T21:47:11;18.80;99.90
28524;DHT22;15734;50.904;6.922;2023-07-22T21:49:36;18.80;99.90
28524;DHT22;15734;50.904;6.922;2023-07-22T21:52:02;18.80;99.90
28524;DHT22;15734;50.904;6.922;2023-07-22T21:54:28;18.70;99.90
28524;DHT22;15734;50.904;6.922;2023-07-22T21:56:53;18.70;99.90
28524;DHT22;15734;50.904;6.922;2023-07-22T21:59:20;18.70;99.90
28524;DHT22;15734;50.904;6.922;2023-07-22T22:01:46;18.60;99.90
28524;DHT22;15734;50.904;6.922;2023-07-22T22:04:11;18.70;99.90
28524;DHT22;15734;50.904;6.922;2023-07-22T22:06:37;18.60;99.90
28524;DHT22;15734;50.904;6.922;2023-07-22T22:09:07;18.60;99.90
28524;DHT22;15734;50.904;6.922;2023-07-22T22:11:34;18.60;99.90
28524;DHT22;15734;50.904;6.922;2023-07-22T22:13:59;18.60;99.90
28524;DHT22;15734;50.904;6.922;2023-07-22T22:16:25;18.60;99.90
28524;DHT22;15734;50.904;6.922;2023-07-22T22:18:50;18.50;99.90
28524;DHT22;15734;50.904;6.922;2023-07-22T22:21:16;18.60;99.90
28524;DHT22;15734;50.904;6.922;2023-07-22T22:23:41;18.50;99.90
28524;DHT22;15734;50.904;6.922;2023-07-22T22:26:08;18.50;99.90
28524;DHT22;15734;50.904;6.922;2023-07-22T22:28:33;18.50;99.90
28524;DHT22;15734;50.904;6.922;2023-07-22T22:31:00;18.50;99.90